logo
Search for airport 
image banner adimage banner adimage banner ad
image banner ad

MMEDV - El Divisadero

Located in Ocampo, Mexico

ICAO - , IATA -

Data provided by Airmate  

General information

Coordinates: N27°33'44" W102°7'13"
Elevation is 4412 feet MSL.
Magnetic variation is 5° East
View others Airports in Coahuila

Operational data

Special qualification required
Current time UTC:
Current local time:
Weather at : - ( 0 km )
METAR: KXVG 180833Z AUTO 24006KT 10SM CLR 03/M01 A2990 RMK AO2
View NOTAMs / SUP AIP / TFR affecting this airport [VIEW]
Communications frequencies: [VIEW]

Runways:

RWY identifierQFULength (ft)Width (ft)SurfaceLDA (ft)
34355°00UNK
16175°00UNK

Airport contact information

Address: Ocampo Mexico

Satellite view of MMEDV